createdAt,value
2022-12-08T00:01:35.855Z,22.60
2022-12-08T00:04:05.248Z,18.70
2022-12-08T00:06:54.308Z,15.90
2022-12-08T00:09:24.422Z,18.33
2022-12-08T00:11:54.817Z,16.47
2022-12-08T00:14:26.758Z,17.97
2022-12-08T00:16:55.468Z,21.60
2022-12-08T00:19:24.797Z,20.47
2022-12-08T00:21:55.175Z,21.70
2022-12-08T00:24:24.709Z,17.30
2022-12-08T00:26:53.312Z,15.70
2022-12-08T00:29:21.550Z,14.27
2022-12-08T00:31:49.638Z,17.87
2022-12-08T00:34:18.156Z,19.57
2022-12-08T00:36:46.651Z,12.00
2022-12-08T00:39:17.374Z,17.57
2022-12-08T00:42:03.319Z,16.50
2022-12-08T00:44:31.379Z,16.27
2022-12-08T00:46:59.459Z,16.87
2022-12-08T00:49:27.673Z,17.70
2022-12-08T00:51:55.706Z,17.40
2022-12-08T00:54:25.146Z,16.33
2022-12-08T00:56:53.263Z,17.93
2022-12-08T00:59:21.452Z,10.10
2022-12-08T01:01:49.836Z,17.73
2022-12-08T01:04:20.329Z,13.80
2022-12-08T01:06:48.832Z,13.57
2022-12-08T01:09:18.420Z,12.97
2022-12-08T01:11:48.256Z,14.67
2022-12-08T01:14:16.613Z,12.53
2022-12-08T01:16:44.905Z,14.63
2022-12-08T01:19:15.166Z,11.43
2022-12-08T01:21:44.239Z,12.57
2022-12-08T01:24:13.149Z,13.40
2022-12-08T01:26:41.559Z,10.77
2022-12-08T01:29:12.045Z,12.07
2022-12-08T01:31:40.355Z,10.90
2022-12-08T01:34:08.626Z,10.13
2022-12-08T01:36:38.525Z,12.70
2022-12-08T01:39:08.494Z,8.60
2022-12-08T01:41:38.063Z,13.57
2022-12-08T01:44:44.764Z,6.97
2022-12-08T01:47:14.190Z,8.07
2022-12-08T01:49:42.312Z,13.00
2022-12-08T01:52:14.702Z,11.90
2022-12-08T01:54:48.506Z,8.07
2022-12-08T01:57:20.000Z,9.70
2022-12-08T01:59:54.582Z,10.17
2022-12-08T02:02:25.378Z,9.90
2022-12-08T02:04:53.417Z,10.77
2022-12-08T02:07:22.931Z,10.73
2022-12-08T02:09:51.781Z,7.87
2022-12-08T02:12:19.827Z,9.90
2022-12-08T02:14:47.898Z,11.37
2022-12-08T02:17:31.689Z,7.73
2022-12-08T02:20:21.737Z,8.63
2022-12-08T02:22:56.084Z,8.43
2022-12-08T02:25:32.302Z,6.23
2022-12-08T02:28:11.926Z,6.53
2022-12-08T02:30:48.576Z,9.90
2022-12-08T02:33:54.887Z,9.50
2022-12-08T02:36:27.952Z,9.70
2022-12-08T02:39:04.164Z,11.03
2022-12-08T02:41:40.618Z,8.97
2022-12-08T02:44:16.555Z,8.20
2022-12-08T02:46:56.856Z,8.23
2022-12-08T02:49:31.252Z,13.03
2022-12-08T02:52:29.311Z,8.20
2022-12-08T02:55:01.213Z,6.10
2022-12-08T02:57:39.472Z,8.33
2022-12-08T03:00:10.517Z,9.37
2022-12-08T03:02:52.702Z,10.83
2022-12-08T03:05:34.703Z,12.10
2022-12-08T03:08:09.155Z,9.70
2022-12-08T03:10:41.818Z,11.53
2022-12-08T03:13:14.763Z,9.53
2022-12-08T03:15:44.248Z,11.70
2022-12-08T03:18:17.154Z,7.83
2022-12-08T03:20:48.796Z,9.37
2022-12-08T03:23:18.594Z,11.07
2022-12-08T03:25:52.948Z,8.90
2022-12-08T03:28:21.223Z,11.67
2022-12-08T03:30:54.579Z,12.67
2022-12-08T03:33:29.168Z,10.77
2022-12-08T03:36:00.496Z,10.00
2022-12-08T03:38:39.132Z,10.87
2022-12-08T03:41:19.656Z,12.07
2022-12-08T03:43:49.108Z,15.50
2022-12-08T03:46:17.680Z,11.33
2022-12-08T03:48:46.068Z,12.60
2022-12-08T03:51:15.722Z,16.33
2022-12-08T03:53:44.136Z,14.53
2022-12-08T03:56:17.947Z,9.83
2022-12-08T03:58:46.020Z,11.40
2022-12-08T04:01:14.262Z,10.50
2022-12-08T04:03:42.309Z,13.37
2022-12-08T04:06:10.386Z,10.93
2022-12-08T04:08:40.039Z,14.93
2022-12-08T04:11:08.136Z,9.37
2022-12-08T04:13:36.483Z,15.67
2022-12-08T04:16:05.225Z,13.57
2022-12-08T04:18:33.379Z,11.80
2022-12-08T04:21:01.383Z,12.93
2022-12-08T04:23:29.396Z,14.57
2022-12-08T04:25:58.765Z,14.13
2022-12-08T04:28:26.796Z,17.00
2022-12-08T04:30:54.884Z,14.53
2022-12-08T04:33:23.012Z,14.73
2022-12-08T04:35:51.219Z,12.70
2022-12-08T04:38:19.353Z,15.17
2022-12-08T04:40:47.632Z,13.63
2022-12-08T04:43:18.154Z,20.87
2022-12-08T04:45:46.211Z,12.60
2022-12-08T04:48:14.764Z,15.37
2022-12-08T04:50:44.083Z,15.50
2022-12-08T04:53:14.175Z,15.90
2022-12-08T04:55:43.906Z,20.00
2022-12-08T04:58:14.682Z,13.67
2022-12-08T05:00:44.952Z,16.43
2022-12-08T05:03:13.559Z,15.23
2022-12-08T05:05:42.726Z,17.83
2022-12-08T05:08:11.727Z,19.67
2022-12-08T05:10:40.426Z,17.17
2022-12-08T05:13:08.480Z,14.83
2022-12-08T05:15:36.521Z,14.80
2022-12-08T05:18:06.577Z,16.73
2022-12-08T05:20:34.890Z,16.27
2022-12-08T05:23:03.143Z,15.40
2022-12-08T05:25:31.536Z,17.87
2022-12-08T05:28:32.304Z,14.73
2022-12-08T05:30:47.819Z,19.00
2022-12-08T05:33:17.450Z,14.17
2022-12-08T05:35:45.602Z,15.20
2022-12-08T05:38:13.662Z,12.03
2022-12-08T05:40:43.410Z,16.50
2022-12-08T05:43:11.646Z,15.00
2022-12-08T05:45:39.745Z,13.90
2022-12-08T05:48:07.850Z,16.87
2022-12-08T05:50:37.273Z,17.33
2022-12-08T05:53:05.451Z,14.50
2022-12-08T05:55:33.506Z,21.60
2022-12-08T05:58:06.234Z,17.40
2022-12-08T06:00:36.043Z,14.77
2022-12-08T06:03:04.268Z,19.67
2022-12-08T06:05:33.921Z,16.33
2022-12-08T06:08:03.491Z,15.60
2022-12-08T06:10:31.659Z,18.93
2022-12-08T06:12:59.681Z,15.50
2022-12-08T06:15:28.436Z,17.33
2022-12-08T06:17:57.822Z,14.10
2022-12-08T06:20:25.847Z,14.33
2022-12-08T06:22:55.291Z,17.53
2022-12-08T06:25:25.459Z,13.80
2022-12-08T06:27:53.516Z,15.97
2022-12-08T06:30:21.675Z,14.47
2022-12-08T06:32:49.716Z,13.60
2022-12-08T06:35:17.911Z,16.27
2022-12-08T06:37:45.954Z,12.23
2022-12-08T06:40:14.852Z,15.57
2022-12-08T06:42:46.608Z,17.67
2022-12-08T06:45:16.326Z,15.87
2022-12-08T06:47:44.756Z,13.53
2022-12-08T06:50:14.204Z,14.13
2022-12-08T06:52:54.167Z,14.17
2022-12-08T06:55:51.260Z,16.17
2022-12-08T06:58:16.203Z,16.90
2022-12-08T07:00:44.423Z,13.37
2022-12-08T07:03:13.757Z,17.00
2022-12-08T07:05:42.260Z,16.00
2022-12-08T07:08:10.450Z,15.80
2022-12-08T07:10:38.899Z,14.33
2022-12-08T07:13:06.992Z,14.87
2022-12-08T07:15:36.547Z,15.67
2022-12-08T07:18:04.715Z,16.43
2022-12-08T07:20:32.833Z,15.10
2022-12-08T07:23:00.882Z,13.00
2022-12-08T07:25:29.047Z,19.92
2022-12-08T07:27:57.130Z,15.17
2022-12-08T07:30:25.325Z,18.85
2022-12-08T07:32:54.845Z,19.60
2022-12-08T07:35:23.161Z,16.07
2022-12-08T07:37:51.311Z,15.23
2022-12-08T07:40:19.548Z,17.67
2022-12-08T07:42:50.116Z,14.37
2022-12-08T07:45:18.449Z,16.40
2022-12-08T07:47:46.523Z,20.53
2022-12-08T07:50:16.023Z,16.17
2022-12-08T07:52:44.115Z,18.30
2022-12-08T07:55:12.176Z,16.77
2022-12-08T07:57:40.242Z,17.07
2022-12-08T08:00:09.586Z,16.67
2022-12-08T08:02:38.046Z,18.57
2022-12-08T08:05:07.138Z,16.33
2022-12-08T08:07:37.259Z,16.90
2022-12-08T08:10:06.870Z,19.97
2022-12-08T08:12:35.114Z,14.53
2022-12-08T08:15:03.688Z,18.73
2022-12-08T08:17:32.200Z,17.63
2022-12-08T08:20:00.829Z,19.13
2022-12-08T08:22:29.313Z,16.50
2022-12-08T08:24:58.673Z,16.47
2022-12-08T08:27:26.999Z,15.97
2022-12-08T08:29:55.173Z,18.50
2022-12-08T08:32:23.213Z,18.50
2022-12-08T08:34:52.472Z,18.53
2022-12-08T08:37:20.769Z,16.63
2022-12-08T08:39:49.059Z,16.43
2022-12-08T08:42:18.581Z,17.23
2022-12-08T08:44:46.897Z,16.33
2022-12-08T08:47:17.432Z,16.13
2022-12-08T08:49:45.594Z,14.00
2022-12-08T08:52:13.658Z,15.93
2022-12-08T08:54:41.838Z,14.70
2022-12-08T08:57:10.444Z,11.73
2022-12-08T08:59:39.857Z,12.23
2022-12-08T09:02:08.299Z,15.13
2022-12-08T09:04:36.406Z,14.23
2022-12-08T09:07:04.423Z,13.13
2022-12-08T09:09:33.570Z,14.43
2022-12-08T09:12:01.677Z,14.23
2022-12-08T09:14:29.769Z,12.10
2022-12-08T09:16:59.309Z,21.83
2022-12-08T09:19:27.426Z,13.40
2022-12-08T09:21:55.574Z,15.87
2022-12-08T09:24:23.930Z,12.50
2022-12-08T09:26:51.949Z,13.70
2022-12-08T09:29:20.006Z,13.40
2022-12-08T09:31:48.188Z,13.77
2022-12-08T09:34:17.816Z,18.67
2022-12-08T09:36:45.866Z,17.03
2022-12-08T09:39:13.924Z,16.77
2022-12-08T09:41:48.759Z,19.23
2022-12-08T09:44:57.327Z,17.73
2022-12-08T09:47:35.242Z,18.30
2022-12-08T09:50:12.291Z,18.17
2022-12-08T09:52:44.377Z,14.97
2022-12-08T09:55:20.539Z,20.20
2022-12-08T09:57:56.727Z,18.33
2022-12-08T10:00:25.077Z,25.87
2022-12-08T10:02:53.225Z,19.73
2022-12-08T10:05:24.035Z,20.83
2022-12-08T10:08:04.770Z,20.63
2022-12-08T10:10:40.413Z,21.63
2022-12-08T10:13:16.718Z,21.13
2022-12-08T10:15:48.874Z,25.53
2022-12-08T10:18:20.416Z,23.43
2022-12-08T10:20:52.277Z,24.00
2022-12-08T10:23:26.937Z,22.90
2022-12-08T10:26:01.771Z,28.00
2022-12-08T10:28:29.949Z,18.33
2022-12-08T10:30:58.044Z,23.53
2022-12-08T10:33:26.516Z,21.07
2022-12-08T10:35:58.489Z,20.57
2022-12-08T10:38:30.852Z,20.47
2022-12-08T10:41:04.617Z,26.53
2022-12-08T10:43:33.867Z,23.40
2022-12-08T10:46:11.992Z,21.93
2022-12-08T10:48:49.520Z,25.03
2022-12-08T10:51:30.499Z,23.40
2022-12-08T10:53:59.382Z,21.03
2022-12-08T10:56:29.523Z,24.27
2022-12-08T10:59:13.906Z,24.50
2022-12-08T11:01:43.725Z,27.23
2022-12-08T11:04:18.128Z,26.20
2022-12-08T11:06:48.883Z,29.50
2022-12-08T11:09:31.791Z,26.00
2022-12-08T11:12:01.094Z,26.40
2022-12-08T11:14:32.330Z,25.53
2022-12-08T11:17:06.692Z,24.03
2022-12-08T11:19:38.837Z,23.07
2022-12-08T11:22:22.029Z,27.70
2022-12-08T11:24:59.041Z,27.48
2022-12-08T11:27:27.704Z,25.53
2022-12-08T11:29:56.158Z,27.23
2022-12-08T11:32:24.556Z,27.67
2022-12-08T11:34:57.330Z,23.27
2022-12-08T11:37:34.920Z,24.87
2022-12-08T11:40:08.330Z,23.73
2022-12-08T11:42:47.452Z,22.20
2022-12-08T11:45:22.940Z,25.70
2022-12-08T11:47:59.311Z,25.10
2022-12-08T11:50:32.034Z,29.13
2022-12-08T11:53:02.794Z,25.13
2022-12-08T11:55:37.590Z,26.80
2022-12-08T11:58:17.699Z,26.93
2022-12-08T12:00:46.115Z,31.33
2022-12-08T12:03:24.596Z,27.97
2022-12-08T12:06:23.924Z,27.37
2022-12-08T12:09:10.591Z,30.27
2022-12-08T12:12:08.282Z,32.10
2022-12-08T12:14:56.234Z,30.53
2022-12-08T12:17:35.913Z,29.73
2022-12-08T12:20:14.532Z,29.17
2022-12-08T12:22:45.016Z,29.20
2022-12-08T12:25:21.523Z,23.37
2022-12-08T12:27:51.138Z,29.27
2022-12-08T12:30:24.697Z,28.37
2022-12-08T12:32:56.013Z,26.03
2022-12-08T12:35:32.905Z,30.30
2022-12-08T12:38:26.827Z,34.00
2022-12-08T12:41:03.230Z,28.53
2022-12-08T12:43:34.565Z,32.58
2022-12-08T12:46:41.244Z,26.27
2022-12-08T12:49:48.732Z,32.17
2022-12-08T12:52:50.658Z,32.00
2022-12-08T12:55:54.309Z,30.03
2022-12-08T12:58:42.740Z,34.80
2022-12-08T13:01:56.734Z,31.77
2022-12-08T13:04:38.639Z,29.93
2022-12-08T13:07:07.046Z,33.97
2022-12-08T13:09:39.244Z,33.60
2022-12-08T13:12:12.523Z,35.17
2022-12-08T13:14:47.770Z,33.50
2022-12-08T13:17:23.993Z,29.80
2022-12-08T13:19:56.960Z,32.97
2022-12-08T13:22:49.113Z,35.10
2022-12-08T13:25:49.294Z,37.10
2022-12-08T13:28:24.152Z,34.60
2022-12-08T13:30:54.695Z,29.60
2022-12-08T13:33:29.532Z,30.23
2022-12-08T13:36:12.944Z,36.73
2022-12-08T13:38:41.291Z,41.93
2022-12-08T13:41:17.822Z,39.97
2022-12-08T13:44:14.284Z,31.63
2022-12-08T13:53:49.083Z,31.47
2022-12-08T13:56:51.521Z,37.33
2022-12-08T13:58:25.503Z,35.67
2022-12-08T14:01:03.539Z,35.10
2022-12-08T14:03:45.111Z,37.77
2022-12-08T14:06:30.248Z,33.07
2022-12-08T14:13:12.588Z,41.90
2022-12-08T14:15:41.225Z,37.77
2022-12-08T14:18:25.470Z,40.50
2022-12-08T14:21:22.601Z,45.80
2022-12-08T14:23:50.930Z,39.40
2022-12-08T14:26:19.503Z,43.00
2022-12-08T14:28:47.851Z,46.47
2022-12-08T14:31:16.314Z,41.47
2022-12-08T14:33:44.844Z,47.10
2022-12-08T14:36:15.882Z,41.63
2022-12-08T14:38:44.218Z,48.13
2022-12-08T14:41:13.413Z,46.63
2022-12-08T14:43:43.133Z,41.13
2022-12-08T14:46:22.323Z,38.70
2022-12-08T14:48:50.735Z,46.73
2022-12-08T14:51:28.191Z,47.03
2022-12-08T14:53:59.752Z,47.37
2022-12-08T14:56:33.586Z,44.90
2022-12-08T14:59:08.564Z,47.43
2022-12-08T15:01:37.208Z,46.83
2022-12-08T15:04:15.064Z,44.37
2022-12-08T15:06:52.556Z,47.70
2022-12-08T15:09:31.873Z,48.23
2022-12-08T15:12:03.968Z,49.87
2022-12-08T15:14:34.187Z,51.73
2022-12-08T15:17:02.587Z,42.00
2022-12-08T15:19:33.237Z,54.60
2022-12-08T15:22:13.216Z,44.50
2022-12-08T15:24:41.554Z,45.07
2022-12-08T15:27:17.221Z,47.20
2022-12-08T15:29:45.544Z,37.00
2022-12-08T15:32:13.919Z,44.07
2022-12-08T15:34:42.257Z,48.87
2022-12-08T15:37:20.107Z,43.97
2022-12-08T15:39:48.441Z,41.80
2022-12-08T15:42:16.854Z,40.97
2022-12-08T15:44:45.344Z,48.43
2022-12-08T15:47:17.738Z,43.03
2022-12-08T15:49:46.403Z,43.13
2022-12-08T15:52:18.025Z,47.53
2022-12-08T15:54:46.390Z,49.13
2022-12-08T16:09:14.492Z,43.60
2022-12-08T16:12:09.863Z,48.50
2022-12-08T16:17:28.424Z,46.83
2022-12-08T16:19:56.766Z,45.67
2022-12-08T16:25:20.758Z,46.30
2022-12-08T16:30:40.282Z,45.23
2022-12-08T16:33:08.742Z,47.00
2022-12-08T16:35:40.039Z,43.90
2022-12-08T16:38:09.812Z,43.67
2022-12-08T16:41:02.477Z,50.90
2022-12-08T16:43:29.822Z,48.17
2022-12-08T16:45:58.204Z,52.20
2022-12-08T16:48:26.681Z,46.27
2022-12-08T16:50:55.175Z,49.83
2022-12-08T16:53:25.182Z,43.13
2022-12-08T16:55:56.534Z,41.97
2022-12-08T16:58:26.312Z,58.10
2022-12-08T17:00:54.963Z,44.03
2022-12-08T17:03:23.047Z,51.33
2022-12-08T17:05:51.771Z,46.43
2022-12-08T17:08:20.319Z,41.70
2022-12-08T17:11:07.269Z,43.77
2022-12-08T17:13:37.318Z,45.87
2022-12-08T17:16:09.966Z,43.90
2022-12-08T17:18:38.405Z,47.70
2022-12-08T17:21:11.562Z,45.60
2022-12-08T17:23:40.047Z,44.73
2022-12-08T17:26:08.703Z,42.63
2022-12-08T17:28:59.390Z,43.40
2022-12-08T17:31:29.918Z,44.30
2022-12-08T17:33:59.873Z,47.87
2022-12-08T17:36:28.220Z,43.20
2022-12-08T17:38:56.740Z,45.53
2022-12-08T17:41:24.831Z,48.93
2022-12-08T17:43:54.297Z,42.10
2022-12-08T17:46:23.108Z,44.73
2022-12-08T17:48:51.603Z,45.73
2022-12-08T17:51:19.960Z,44.60
2022-12-08T17:53:48.373Z,49.70
2022-12-08T17:56:18.534Z,43.67
2022-12-08T17:58:51.298Z,48.93
2022-12-08T18:01:22.760Z,46.10
2022-12-08T18:03:51.023Z,56.33
2022-12-08T18:06:19.053Z,49.23
2022-12-08T18:08:47.200Z,44.10
2022-12-08T18:11:17.603Z,54.73
2022-12-08T18:13:46.166Z,53.83
2022-12-08T18:16:15.096Z,49.30
2022-12-08T18:18:45.302Z,48.37
2022-12-08T18:21:16.313Z,52.93
2022-12-08T18:23:48.071Z,44.60
2022-12-08T18:26:17.458Z,45.87
2022-12-08T18:28:45.719Z,45.10
2022-12-08T18:31:16.121Z,46.57
2022-12-08T18:33:47.231Z,40.40
2022-12-08T18:36:17.624Z,44.90
2022-12-08T18:38:46.157Z,42.60
2022-12-08T18:41:15.923Z,41.83
2022-12-08T18:43:43.988Z,43.40
2022-12-08T18:46:14.191Z,42.23
2022-12-08T18:48:43.940Z,44.60
2022-12-08T18:51:14.776Z,41.53
2022-12-08T18:53:43.522Z,44.77
2022-12-08T18:56:23.291Z,41.00
2022-12-08T18:58:51.384Z,42.40
2022-12-08T19:01:19.940Z,44.03
2022-12-08T19:04:05.144Z,48.00
2022-12-08T19:06:40.143Z,39.53
2022-12-08T19:09:09.326Z,41.13
2022-12-08T19:11:37.474Z,41.57
2022-12-08T19:14:05.855Z,37.87
2022-12-08T19:16:34.045Z,41.93
2022-12-08T19:19:02.314Z,39.83
2022-12-08T19:21:30.474Z,38.60
2022-12-08T19:24:00.094Z,39.13
2022-12-08T19:26:29.246Z,39.80
2022-12-08T19:28:58.341Z,40.93
2022-12-08T19:31:26.721Z,35.93
2022-12-08T19:33:55.018Z,39.07
2022-12-08T19:36:24.877Z,36.93
2022-12-08T19:39:10.566Z,36.63
2022-12-08T19:42:09.149Z,38.20
2022-12-08T19:44:55.520Z,46.40
2022-12-08T19:47:25.343Z,39.77
2022-12-08T19:49:54.828Z,34.63
2022-12-08T19:52:23.179Z,41.50
2022-12-08T19:54:51.262Z,38.03
2022-12-08T19:57:20.676Z,41.80
2022-12-08T19:59:54.623Z,38.53
2022-12-08T20:02:24.775Z,39.07
2022-12-08T20:04:52.945Z,41.05
2022-12-08T20:07:21.542Z,40.97
2022-12-08T20:09:49.659Z,35.80
2022-12-08T20:12:17.735Z,39.30
2022-12-08T20:14:47.342Z,36.87
2022-12-08T20:17:15.511Z,37.80
2022-12-08T20:19:43.548Z,35.07
2022-12-08T20:22:11.598Z,38.40
2022-12-08T20:24:39.695Z,35.43
2022-12-08T20:27:07.827Z,42.50
2022-12-08T20:29:35.894Z,37.57
2022-12-08T20:32:05.641Z,39.53
2022-12-08T20:34:34.599Z,36.13
2022-12-08T20:37:02.879Z,38.67
2022-12-08T20:39:30.959Z,32.97
2022-12-08T20:42:00.219Z,34.90
2022-12-08T20:44:29.369Z,36.07
2022-12-08T20:46:57.475Z,40.73
2022-12-08T20:49:32.807Z,40.20
2022-12-08T20:52:02.812Z,38.03
2022-12-08T20:54:30.913Z,36.10
2022-12-08T20:56:59.053Z,33.57
2022-12-08T20:59:27.480Z,38.27
2022-12-08T21:01:58.199Z,38.13
2022-12-08T21:04:28.277Z,36.00
2022-12-08T21:06:56.644Z,39.73
2022-12-08T21:09:24.889Z,39.00
2022-12-08T21:11:53.444Z,44.03
2022-12-08T21:14:21.684Z,34.33
2022-12-08T21:16:51.004Z,40.60
2022-12-08T21:19:19.960Z,39.80
2022-12-08T21:21:50.750Z,39.37
2022-12-08T21:24:19.380Z,37.47
2022-12-08T21:26:47.737Z,34.53
2022-12-08T21:29:16.137Z,37.30
2022-12-08T21:31:44.271Z,38.13
2022-12-08T21:34:12.809Z,41.13
2022-12-08T21:36:40.913Z,36.83
2022-12-08T21:39:12.811Z,36.47
2022-12-08T21:41:58.710Z,40.93
2022-12-08T21:44:26.846Z,42.57
2022-12-08T21:46:55.525Z,38.20
2022-12-08T21:49:23.840Z,41.53
2022-12-08T21:51:51.899Z,39.60
2022-12-08T21:54:21.490Z,42.53
2022-12-08T21:56:50.772Z,39.93
2022-12-08T21:59:19.840Z,39.23
2022-12-08T22:01:48.445Z,40.07
2022-12-08T22:04:18.989Z,35.43
2022-12-08T22:06:47.418Z,41.53
2022-12-08T22:09:15.671Z,42.50
2022-12-08T22:11:45.594Z,41.23
2022-12-08T22:14:15.145Z,41.77
2022-12-08T22:16:44.392Z,37.27
2022-12-08T22:19:13.482Z,39.87
2022-12-08T22:21:41.713Z,40.57
2022-12-08T22:24:10.376Z,41.03
2022-12-08T22:26:38.969Z,41.53
2022-12-08T22:29:08.472Z,49.37
2022-12-08T22:31:37.193Z,39.20
2022-12-08T22:34:06.246Z,42.40
2022-12-08T22:36:34.661Z,51.13
2022-12-08T22:39:03.346Z,44.13
2022-12-08T22:41:31.397Z,44.97
2022-12-08T22:43:59.565Z,47.00
2022-12-08T22:46:29.337Z,40.93
2022-12-08T22:48:57.432Z,46.53
2022-12-08T22:51:25.663Z,50.60
2022-12-08T22:53:53.978Z,50.60
2022-12-08T22:56:22.035Z,45.40
2022-12-08T22:58:51.199Z,46.23
2022-12-08T23:01:24.531Z,50.37
2022-12-08T23:03:54.218Z,43.10
2022-12-08T23:06:22.637Z,48.27
2022-12-08T23:08:51.097Z,44.37
2022-12-08T23:11:19.613Z,49.20
2022-12-08T23:13:48.207Z,47.77
2022-12-08T23:16:16.725Z,46.17
2022-12-08T23:18:46.952Z,48.40
2022-12-08T23:21:18.923Z,44.53
2022-12-08T23:23:47.718Z,48.87
2022-12-08T23:26:19.398Z,49.20
2022-12-08T23:28:47.584Z,51.30
2022-12-08T23:31:16.351Z,48.73
2022-12-08T23:33:44.791Z,50.53
2022-12-08T23:36:14.294Z,45.73
2022-12-08T23:38:44.268Z,50.63
2022-12-08T23:41:14.423Z,51.27
2022-12-08T23:43:45.861Z,50.87
2022-12-08T23:46:14.970Z,54.17
2022-12-08T23:48:43.353Z,55.63
2022-12-08T23:51:11.774Z,55.63
2022-12-08T23:53:40.654Z,56.13
2022-12-08T23:56:12.172Z,55.70
2022-12-08T23:58:41.138Z,48.60
